In Rescue
 
Open Full Screen Window  High Contrast Mode
Wind Gusting 00 knots
04
May 25, 2022 10:33 PM EDT
Present Weather: Rain
Weather Information
Wind Direction
  110 °
Wind Speed
  04 kt (5 mph)
Wind Gust
  00 kt (0 mph)
Altimeter
29.97 in
Visibility
5 SM
Temperature
10° C
50° F
Dewpoint
09° C
48° F
Humidity
94%
Sky Condition
Overcast @ 500 ft
IFR

METAR KPZQ 260233Z AUTO 11004KT 5SM RA OVC005 10/09 A2997 RMK AO2 T00980088

FAA Disclaimer: The data displayed is for advisory purposes only and is not to be used for flight planning or operations.